Time;durP1;ratioP1;P1;durP2;ratioP2;P2;SDS_P1;SDS_P2;PMS_P1;PMS_P2;Temp;Humidity;BMP_temperature;BMP_pressure;BME280_temperature;BME280_humidity;BME280_pressure;Samples;Min_cycle;Max_cycle;Signal;HPM_P1;HPM_P2
2024/01/07 00:01:39;;;;;;;16.85;10.95;;;;;;;9.98;100.00;98784.72;5070099;28;20405;-77
2024/01/07 00:04:04;;;;;;;17.98;9.93;;;;;;;10.09;100.00;98784.84;5052799;28;20028;-77
2024/01/07 00:06:30;;;;;;;21.08;14.73;;;;;;;10.30;100.00;98801.91;5070512;28;20181;-78
2024/01/07 00:08:55;;;;;;;20.13;15.57;;;;;;;10.42;100.00;98787.41;5070089;28;20532;-79
2024/01/07 00:11:20;;;;;;;15.57;10.52;;;;;;;10.26;100.00;98758.97;5051993;28;20045;-77
2024/01/07 00:13:46;;;;;;;23.98;15.25;;;;;;;10.13;100.00;98775.31;5051771;28;20067;-78
2024/01/07 00:16:11;;;;;;;15.90;11.23;;;;;;;9.89;100.00;98767.56;5070248;28;20040;-77
2024/01/07 00:18:37;;;;;;;20.42;11.85;;;;;;;9.92;100.00;98785.69;5052122;28;20036;-77
2024/01/07 00:21:02;;;;;;;18.02;11.75;;;;;;;9.86;100.00;98781.34;5069926;28;20117;-78
2024/01/07 00:23:28;;;;;;;18.75;10.95;;;;;;;9.67;100.00;98750.75;5069999;28;20485;-77
2024/01/07 00:25:54;;;;;;;18.48;10.25;;;;;;;9.94;100.00;98796.91;5056950;28;20028;-78
2024/01/07 00:28:20;;;;;;;18.45;11.20;;;;;;;10.22;100.00;98771.16;5069902;28;20033;-78
2024/01/07 00:30:45;;;;;;;13.18;7.47;;;;;;;10.26;100.00;98753.63;5051961;28;20036;-77
2024/01/07 00:33:11;;;;;;;17.08;9.15;;;;;;;10.53;100.00;98784.88;5065757;28;20076;-77
2024/01/07 00:35:36;;;;;;;14.00;9.02;;;;;;;10.55;100.00;98785.44;5069771;28;20029;-78
2024/01/07 00:38:02;;;;;;;15.45;9.10;;;;;;;10.61;100.00;98776.44;5070146;28;20745;-77
2024/01/07 00:40:27;;;;;;;20.17;12.13;;;;;;;10.44;100.00;98752.50;5069972;28;20040;-79
2024/01/07 00:42:53;;;;;;;30.98;16.55;;;;;;;10.57;100.00;98743.34;5069456;28;20036;-78
2024/01/07 00:45:18;;;;;;;18.25;9.00;;;;;;;10.49;100.00;98741.91;5068747;28;20032;-78
2024/01/07 00:47:44;;;;;;;24.35;14.77;;;;;;;10.62;100.00;98749.53;5069627;28;20029;-77
2024/01/07 00:50:09;;;;;;;18.75;10.32;;;;;;;10.84;100.00;98770.00;5069469;28;20516;-78
2024/01/07 00:52:36;;;;;;;19.50;10.45;;;;;;;10.75;100.00;98756.31;5069266;28;20036;-77
2024/01/07 00:55:03;;;;;;;20.40;10.27;;;;;;;10.54;100.00;98733.16;5068916;28;20115;-78
2024/01/07 00:57:29;;;;;;;71.28;36.08;;;;;;;10.58;100.00;98739.59;5069471;28;20086;-77
2024/01/07 00:59:55;;;;;;;69.53;42.33;;;;;;;10.60;100.00;98727.66;5069160;28;20493;-78
2024/01/07 01:02:20;;;;;;;31.50;16.08;;;;;;;10.61;100.00;98712.44;5068753;28;20058;-78
2024/01/07 01:04:45;;;;;;;16.60;8.65;;;;;;;10.55;100.00;98713.47;5068963;28;20103;-78
2024/01/07 01:07:11;;;;;;;24.23;12.48;;;;;;;10.70;100.00;98704.78;5067632;28;20032;-78
2024/01/07 01:09:36;;;;;;;21.55;11.20;;;;;;;10.75;100.00;98731.50;5067631;28;20028;-78
2024/01/07 01:12:02;;;;;;;15.15;10.65;;;;;;;10.65;100.00;98697.56;5068230;28;20123;-78
2024/01/07 01:14:27;;;;;;;23.15;13.95;;;;;;;10.64;100.00;98690.59;5068506;28;20035;-79
2024/01/07 01:16:53;;;;;;;22.00;14.07;;;;;;;10.75;100.00;98659.53;5068455;28;20029;-78
2024/01/07 01:19:18;;;;;;;19.35;13.23;;;;;;;10.87;100.00;98676.16;5068464;28;20028;-79
2024/01/07 01:21:43;;;;;;;20.83;11.25;;;;;;;10.77;100.00;98662.75;5050525;28;20073;-78
2024/01/07 01:24:09;;;;;;;17.05;10.75;;;;;;;10.55;100.00;98612.16;5068739;28;20648;-79
2024/01/07 01:26:34;;;;;;;15.70;10.27;;;;;;;10.95;100.00;98665.00;5068250;28;20035;-78
2024/01/07 01:29:00;;;;;;;15.27;8.57;;;;;;;10.89;100.00;98655.38;5050200;28;20032;-78
2024/01/07 01:31:25;;;;;;;15.48;8.82;;;;;;;10.84;100.00;98617.97;5067850;28;20036;-78
2024/01/07 01:33:50;;;;;;;15.00;9.23;;;;;;;10.82;100.00;98628.09;5068166;28;20037;-77
2024/01/07 01:36:16;;;;;;;13.48;9.25;;;;;;;10.90;100.00;98616.16;5064850;28;20734;-78
2024/01/07 01:38:41;;;;;;;14.68;7.38;;;;;;;10.64;100.00;98606.13;5050014;28;20020;-77
2024/01/07 01:41:07;;;;;;;17.23;8.50;;;;;;;10.55;100.00;98588.19;5067814;28;20580;-77
2024/01/07 01:43:32;;;;;;;16.50;9.45;;;;;;;10.51;100.00;98589.75;5067214;28;20026;-77
2024/01/07 01:45:58;;;;;;;17.52;9.32;;;;;;;10.50;100.00;98588.13;5049884;28;20021;-77
2024/01/07 01:48:24;;;;;;;15.68;8.80;;;;;;;10.59;100.00;98597.28;5067710;28;20024;-78
2024/01/07 01:50:50;;;;;;;14.18;8.43;;;;;;;10.60;100.00;98572.19;5067643;28;20024;-77
2024/01/07 01:53:16;;;;;;;11.40;7.90;;;;;;;10.58;100.00;98572.47;5067753;28;20036;-78
2024/01/07 01:55:42;;;;;;;13.77;7.38;;;;;;;10.60;100.00;98557.03;5067263;28;20039;-77
2024/01/07 01:58:09;;;;;;;13.35;8.02;;;;;;;10.72;100.00;98562.16;5049991;28;20031;-78
2024/01/07 02:00:34;;;;;;;17.65;7.82;;;;;;;10.64;100.00;98563.47;5067577;28;20020;-77
2024/01/07 02:03:00;;;;;;;14.77;8.95;;;;;;;10.44;100.00;98526.78;5067909;28;20043;-77
2024/01/07 02:05:27;;;;;;;14.20;9.00;;;;;;;10.66;100.00;98557.84;5067357;28;20107;-77
2024/01/07 02:07:53;;;;;;;12.75;7.55;;;;;;;10.50;100.00;98540.13;5049566;28;20032;-77
2024/01/07 02:10:18;;;;;;;23.45;12.38;;;;;;;10.61;100.00;98552.50;5067298;28;20025;-77
2024/01/07 02:12:44;;;;;;;19.75;12.00;;;;;;;10.54;100.00;98541.25;5048828;28;20154;-77
2024/01/07 02:15:09;;;;;;;18.35;12.95;;;;;;;10.35;100.00;98496.34;5067552;28;20028;-76
2024/01/07 02:17:34;;;;;;;17.42;10.65;;;;;;;10.44;100.00;98489.47;5067490;28;20093;-77
2024/01/07 02:20:00;;;;;;;14.98;8.05;;;;;;;10.53;100.00;98505.78;5067790;28;20059;-77
2024/01/07 02:22:25;;;;;;;24.10;14.02;;;;;;;10.42;100.00;98491.59;5066563;28;20040;-77
2024/01/07 02:24:51;;;;;;;56.20;33.55;;;;;;;10.61;100.00;98504.50;5049291;28;20028;-78
2024/01/07 02:27:16;;;;;;;14.48;8.13;;;;;;;10.50;100.00;98494.84;5067380;28;20032;-78
2024/01/07 02:29:41;;;;;;;24.02;15.25;;;;;;;10.35;100.00;98474.22;5067551;28;20028;-77
2024/01/07 02:32:07;;;;;;;26.52;19.65;;;;;;;10.40;100.00;98451.09;5067671;28;20093;-77
2024/01/07 02:34:32;;;;;;;25.15;17.02;;;;;;;10.42;100.00;98453.47;5067426;28;20097;-77
2024/01/07 02:36:58;;;;;;;21.05;13.13;;;;;;;10.30;100.00;98436.88;5052470;28;20464;-78
2024/01/07 02:39:23;;;;;;;16.00;12.68;;;;;;;10.03;100.00;98419.09;5067565;28;20025;-77
2024/01/07 02:41:50;;;;;;;15.10;8.85;;;;;;;10.11;100.00;98426.59;5067521;28;20463;-77
2024/01/07 02:44:16;;;;;;;16.67;11.57;;;;;;;10.17;100.00;98440.75;5067427;28;20574;-78
2024/01/07 02:46:41;;;;;;;18.77;12.13;;;;;;;10.24;100.00;98446.69;5067302;28;20021;-76
2024/01/07 02:49:07;;;;;;;15.25;8.13;;;;;;;10.13;100.00;98440.47;5068196;28;20029;-77
2024/01/07 02:51:32;;;;;;;15.82;8.48;;;;;;;10.28;100.00;98450.44;5067339;28;20082;-77
2024/01/07 02:53:57;;;;;;;14.40;7.35;;;;;;;10.13;100.00;98423.69;5067965;28;20112;-78
2024/01/07 02:56:23;;;;;;;15.93;7.00;;;;;;;10.17;100.00;98424.78;5067330;28;20622;-76
2024/01/07 02:58:48;;;;;;;16.65;8.45;;;;;;;10.19;100.00;98412.00;5049877;28;20036;-76
2024/01/07 03:01:14;;;;;;;13.07;7.22;;;;;;;10.30;100.00;98436.88;5067582;28;20090;-78
2024/01/07 03:03:39;;;;;;;13.82;8.93;;;;;;;10.22;100.00;98411.50;5049213;28;20036;-77
2024/01/07 03:06:05;;;;;;;14.48;8.35;;;;;;;10.34;100.00;98414.81;5067929;28;20024;-76
2024/01/07 03:08:31;;;;;;;14.95;8.98;;;;;;;10.28;100.00;98383.84;5070088;28;20036;-77
2024/01/07 03:10:56;;;;;;;20.38;14.13;;;;;;;10.26;100.00;98397.41;5053713;28;20027;-77
2024/01/07 03:13:22;;;;;;;17.92;10.93;;;;;;;10.24;100.00;98369.41;5070963;28;20045;-76
2024/01/07 03:15:47;;;;;;;19.05;13.27;;;;;;;10.32;100.00;98384.94;5072102;28;20113;-76
2024/01/07 03:18:12;;;;;;;20.75;13.45;;;;;;;10.18;100.00;98363.25;5071761;28;20043;-78
2024/01/07 03:20:38;;;;;;;14.68;7.63;;;;;;;10.17;100.00;98366.97;5072151;28;20076;-77
2024/01/07 03:23:03;;;;;;;16.95;11.23;;;;;;;10.02;100.00;98342.91;5072721;28;20170;-77
2024/01/07 03:25:29;;;;;;;18.73;8.80;;;;;;;9.89;100.00;98317.56;5072182;28;20017;-77
2024/01/07 03:27:54;;;;;;;16.65;8.38;;;;;;;10.23;100.00;98341.16;5078655;28;20040;-77
2024/01/07 03:30:19;;;;;;;17.85;8.63;;;;;;;10.25;100.00;98337.19;5082195;28;20029;-78
2024/01/07 03:32:45;;;;;;;13.20;7.78;;;;;;;10.07;100.00;98324.28;5081900;28;20432;-78
2024/01/07 03:35:11;;;;;;;11.88;7.05;;;;;;;10.26;100.00;98372.63;5063546;28;20037;-76
2024/01/07 03:37:36;;;;;;;13.25;7.82;;;;;;;10.33;100.00;98381.22;5077653;28;20032;-78
2024/01/07 03:40:02;;;;;;;11.95;6.97;;;;;;;10.14;100.00;98366.69;5081260;28;20029;-78
2024/01/07 03:42:27;;;;;;;18.55;8.10;;;;;;;10.38;100.00;98389.25;5066390;28;20036;-77
2024/01/07 03:44:53;;;;;;;18.15;8.27;;;;;;;10.39;100.00;98390.84;5081443;28;20063;-78
2024/01/07 03:47:18;;;;;;;17.38;8.70;;;;;;;10.44;100.00;98380.22;5080744;28;20067;-78
2024/01/07 03:49:44;;;;;;;15.48;8.65;;;;;;;10.20;100.00;98342.50;5080672;28;20024;-78
2024/01/07 03:52:09;;;;;;;14.68;8.18;;;;;;;10.52;100.00;98368.28;5080007;28;20025;-77
2024/01/07 03:54:35;;;;;;;14.38;8.32;;;;;;;10.41;100.00;98356.72;5062055;28;20059;-79
2024/01/07 03:57:00;;;;;;;13.38;8.25;;;;;;;10.24;100.00;98337.47;5079347;28;20024;-79
2024/01/07 03:59:26;;;;;;;20.00;10.38;;;;;;;10.26;100.00;98369.97;5078800;28;20032;-78
2024/01/07 04:01:56;;;;;;;16.20;9.20;;;;;;;10.26;100.00;98344.13;5076303;28;20021;-78
2024/01/07 04:04:21;;;;;;;18.10;8.73;;;;;;;10.18;100.00;98314.50;5074341;28;20093;-78
2024/01/07 04:06:47;;;;;;;36.67;21.02;;;;;;;10.16;100.00;98311.31;5072427;28;20024;-78
2024/01/07 04:09:12;;;;;;;33.20;20.02;;;;;;;10.22;100.00;98307.59;5053923;28;20032;-77
2024/01/07 04:11:42;;;;;;;24.40;12.20;;;;;;;10.01;100.00;98291.53;5071600;28;20111;-78
2024/01/07 04:14:08;;;;;;;43.85;29.90;;;;;;;10.08;100.00;98303.81;5071037;28;20044;-77
2024/01/07 04:16:33;;;;;;;36.08;24.50;;;;;;;10.26;100.00;98300.69;5070589;28;20036;-77
2024/01/07 04:18:58;;;;;;;16.42;10.82;;;;;;;10.10;100.00;98280.38;5051575;28;20123;-78
2024/01/07 04:21:24;;;;;;;18.88;14.43;;;;;;;10.10;100.00;98261.75;5070396;28;20046;-78
2024/01/07 04:23:49;;;;;;;17.02;10.85;;;;;;;10.24;100.00;98297.50;5052239;28;20448;-78
2024/01/07 04:26:15;;;;;;;18.83;10.70;;;;;;;10.05;100.00;98251.84;5070378;28;20047;-78
2024/01/07 04:28:43;;;;;;;17.73;8.85;;;;;;;10.27;100.00;98280.97;5060938;28;20028;-78
2024/01/07 04:31:09;;;;;;;21.58;11.30;;;;;;;10.32;100.00;98282.88;5070082;28;20036;-78
2024/01/07 04:33:34;;;;;;;17.50;10.10;;;;;;;10.53;100.00;98283.78;5051907;28;20031;-78
2024/01/07 04:36:00;;;;;;;16.05;10.73;;;;;;;10.29;100.00;98262.06;5051391;28;20120;-78
2024/01/07 04:38:26;;;;;;;19.55;12.02;;;;;;;10.45;100.00;98271.75;5070129;28;20035;-78
2024/01/07 04:40:52;;;;;;;15.88;9.27;;;;;;;10.54;100.00;98285.34;5051880;28;20037;-78
2024/01/07 04:43:20;;;;;;;13.02;6.80;;;;;;;10.47;100.00;98296.28;5069337;28;20060;-78
2024/01/07 04:45:46;;;;;;;;;;;;;;;10.66;100.00;98325.91;5052184;28;20573;-78
2024/01/07 04:48:12;;;;;;;11.23;4.85;;;;;;;10.50;100.00;98317.09;5069118;28;19920;-78
2024/01/07 04:50:39;;;;;;;11.73;5.00;;;;;;;10.58;100.00;98316.59;5069655;28;20170;-78
2024/01/07 04:53:05;;;;;;;13.02;5.32;;;;;;;10.55;100.00;98294.97;5068910;28;20595;-79
2024/01/07 04:55:30;;;;;;;9.60;4.68;;;;;;;10.69;100.00;98314.75;5069362;28;20508;-79
2024/01/07 04:57:56;;;;;;;17.63;7.57;;;;;;;10.85;100.00;98310.25;5069053;28;20060;-78
2024/01/07 05:00:21;;;;;;;34.95;18.02;;;;;;;10.85;100.00;98313.72;5069522;28;20028;-79
2024/01/07 05:02:47;;;;;;;35.55;19.60;;;;;;;10.64;100.00;98296.06;5068569;28;20032;-78
2024/01/07 05:05:12;;;;;;;30.83;15.77;;;;;;;10.55;100.00;98305.63;5068983;28;20028;-78
2024/01/07 05:07:38;;;;;;;11.02;4.57;;;;;;;10.58;100.00;98326.41;5069183;28;20124;-77
2024/01/07 05:10:04;;;;;;;8.52;3.10;;;;;;;10.67;100.00;98335.53;5069212;28;20881;-78
2024/01/07 05:12:29;;;;;;;6.65;2.28;;;;;;;10.69;100.00;98344.06;5068382;28;20036;-78
2024/01/07 05:14:55;;;;;;;6.40;2.30;;;;;;;10.70;100.00;98345.66;5068888;28;20543;-79
2024/01/07 05:17:20;;;;;;;6.45;2.45;;;;;;;10.78;100.00;98350.47;5068683;28;20058;-78
2024/01/07 05:19:45;;;;;;;6.18;2.17;;;;;;;10.77;100.00;98324.91;5068652;28;20032;-78
2024/01/07 05:22:11;;;;;;;6.18;2.08;;;;;;;10.68;100.00;98302.47;5068442;28;20144;-78
2024/01/07 05:24:38;;;;;;;10.50;5.38;;;;;;;10.53;100.00;98321.09;5068651;28;20020;-78
2024/01/07 05:27:04;;;;;;;22.85;13.05;;;;;;;10.68;100.00;98317.66;5068531;28;20631;-78
2024/01/07 05:29:29;;;;;;;27.05;17.35;;;;;;;10.85;100.00;98351.06;5068520;28;20126;-78
2024/01/07 05:31:55;;;;;;;31.50;23.80;;;;;;;10.71;100.00;98357.16;5067943;28;20108;-79
2024/01/07 05:34:20;;;;;;;16.65;12.45;;;;;;;10.57;100.00;98349.63;5067678;28;20123;-79
2024/01/07 05:36:46;;;;;;;16.70;11.68;;;;;;;10.36;100.00;98347.91;5054191;28;20085;-78
2024/01/07 05:39:11;;;;;;;7.60;2.92;;;;;;;10.34;100.00;98360.69;5066180;28;20119;-79
2024/01/07 05:41:38;;;;;;;2.90;1.70;;;;;;;10.36;100.00;98382.56;5049837;28;20447;-77
2024/01/07 05:44:06;;;;;;;4.28;1.60;;;;;;;10.06;100.00;98390.09;5067859;28;20036;-79
2024/01/07 05:46:31;;;;;;;2.78;1.10;;;;;;;10.00;100.00;98361.00;5068371;28;20552;-79
2024/01/07 05:48:57;;;;;;;4.00;1.00;;;;;;;10.29;100.00;98357.97;5067644;28;20097;-78
2024/01/07 05:51:22;;;;;;;4.45;1.02;;;;;;;10.02;100.00;98322.41;5068127;28;20031;-79
2024/01/07 05:53:48;;;;;;;2.00;1.00;;;;;;;9.94;100.00;98330.88;5068140;28;20444;-78
2024/01/07 05:56:13;;;;;;;7.45;3.03;;;;;;;9.80;100.00;98324.41;5067830;28;20107;-78
2024/01/07 05:58:39;;;;;;;8.63;3.28;;;;;;;9.80;100.00;98311.09;5049922;28;20064;-78
2024/01/07 06:01:05;;;;;;;9.07;4.13;;;;;;;9.87;100.00;98330.31;5067889;28;20583;-78
2024/01/07 06:03:30;;;;;;;8.95;5.35;;;;;;;9.70;100.00;98292.41;5067448;28;20025;-78
2024/01/07 06:05:55;;;;;;;7.13;3.60;;;;;;;9.89;100.00;98320.22;5067686;28;20033;-78
2024/01/07 06:08:21;;;;;;;12.30;6.65;;;;;;;10.13;100.00;98299.28;5067237;28;20127;-79
2024/01/07 06:10:46;;;;;;;11.00;7.85;;;;;;;10.15;100.00;98299.03;5067861;28;20497;-78
2024/01/07 06:13:12;;;;;;;5.15;3.10;;;;;;;9.96;100.00;98275.50;5048937;28;20048;-78
2024/01/07 06:15:37;;;;;;;5.47;3.00;;;;;;;9.99;100.00;98277.66;5067959;28;20040;-78
2024/01/07 06:18:03;;;;;;;8.73;3.03;;;;;;;9.94;100.00;98266.97;5067779;28;20070;-78
2024/01/07 06:20:28;;;;;;;6.68;3.13;;;;;;;10.16;100.00;98280.13;5067175;28;20024;-78
2024/01/07 06:22:54;;;;;;;4.40;2.55;;;;;;;10.17;100.00;98288.94;5067727;28;20501;-78
2024/01/07 06:25:20;;;;;;;2.15;0.85;;;;;;;10.17;100.00;98296.91;5067325;28;20028;-78
2024/01/07 06:27:45;;;;;;;3.25;0.75;;;;;;;10.31;100.00;98291.94;5067373;28;20425;-79
2024/01/07 06:30:11;;;;;;;1.63;0.80;;;;;;;10.24;100.00;98281.50;5067481;28;20477;-78
2024/01/07 06:32:37;;;;;;;4.90;0.88;;;;;;;10.31;100.00;98278.63;5067424;28;20382;-78
2024/01/07 06:35:03;;;;;;;1.65;0.60;;;;;;;10.40;100.00;98272.53;5067249;28;20429;-79
2024/01/07 06:37:29;;;;;;;2.13;0.90;;;;;;;10.61;100.00;98291.25;5067530;28;20119;-78
2024/01/07 06:39:56;;;;;;;1.13;0.47;;;;;;;10.52;100.00;98292.81;5067470;28;20025;-77
2024/01/07 06:42:22;;;;;;;2.67;0.57;;;;;;;10.83;100.00;98318.50;5066520;28;20043;-78
2024/01/07 06:44:47;;;;;;;1.63;0.60;;;;;;;10.77;100.00;98311.56;5067573;28;20029;-76
2024/01/07 06:47:13;;;;;;;1.45;0.52;;;;;;;10.49;100.00;98275.50;5067109;28;20108;-77
2024/01/07 06:49:38;;;;;;;2.20;0.50;;;;;;;10.90;100.00;98328.13;5049077;28;20020;-77
2024/01/07 06:52:05;;;;;;;3.67;0.85;;;;;;;10.77;100.00;98294.78;5067258;28;20035;-77
2024/01/07 06:54:30;;;;;;;2.30;0.63;;;;;;;10.73;100.00;98315.81;5049017;28;20127;-77
2024/01/07 06:56:55;;;;;;;3.85;1.10;;;;;;;10.73;100.00;98331.03;5067047;28;20491;-78
2024/01/07 06:59:21;;;;;;;5.43;1.60;;;;;;;11.06;100.00;98361.75;5067345;28;20049;-78
2024/01/07 07:01:46;;;;;;;7.15;1.80;;;;;;;10.81;100.00;98343.84;5067471;28;20024;-77
2024/01/07 07:04:11;;;;;;;10.65;4.40;;;;;;;10.81;100.00;98355.31;5066940;28;20488;-78
2024/01/07 07:06:37;;;;;;;8.85;5.13;;;;;;;10.71;100.00;98311.81;5066608;28;20082;-78
2024/01/07 07:09:02;;;;;;;8.65;4.18;;;;;;;10.84;100.00;98330.75;5067035;28;20056;-78
2024/01/07 07:11:28;;;;;;;4.95;1.90;;;;;;;10.83;100.00;98331.84;5066514;28;20103;-78
2024/01/07 07:13:53;;;;;;;2.92;1.40;;;;;;;11.01;100.00;98359.06;5066958;28;20124;-78
2024/01/07 07:16:18;;;;;;;7.45;1.35;;;;;;;11.23;100.00;98377.53;5066799;28;20033;-78
2024/01/07 07:18:44;;;;;;;3.47;1.17;;;;;;;11.23;100.00;98370.31;5066896;28;20033;-78
2024/01/07 07:21:09;;;;;;;5.38;1.55;;;;;;;11.44;100.00;98352.47;5067073;28;20035;-78
2024/01/07 07:23:34;;;;;;;6.30;1.35;;;;;;;11.55;100.00;98347.94;5066686;28;20107;-78
2024/01/07 07:26:00;;;;;;;5.47;2.20;;;;;;;11.65;100.00;98355.94;5065805;28;20024;-79
2024/01/07 07:28:25;;;;;;;5.38;2.00;;;;;;;11.78;100.00;98357.28;5066485;28;20031;-78
2024/01/07 07:30:52;;;;;;;5.53;1.08;;;;;;;11.81;100.00;98374.63;5067010;28;20476;-77
2024/01/07 07:33:17;;;;;;;6.03;1.20;;;;;;;11.95;100.00;98367.72;5066881;28;20040;-77
2024/01/07 07:35:43;;;;;;;7.53;1.70;;;;;;;11.91;100.00;98353.31;5066531;28;20029;-78
2024/01/07 07:38:08;;;;;;;5.53;1.67;;;;;;;12.19;100.00;98345.75;5066426;28;20542;-77
2024/01/07 07:40:34;;;;;;;4.78;1.75;;;;;;;12.15;100.00;98325.97;5066417;28;20077;-77
2024/01/07 07:42:59;;;;;;;5.68;1.95;;;;;;;12.18;100.00;98325.44;5066389;28;20032;-78
2024/01/07 07:45:24;;;;;;;4.40;1.10;;;;;;;12.24;100.00;98330.50;5066527;28;20627;-78
2024/01/07 07:47:50;;;;;;;8.63;5.63;;;;;;;12.37;100.00;98334.47;5066414;28;20039;-78
2024/01/07 07:50:19;;;;;;;8.60;2.15;;;;;;;12.14;100.00;98327.88;5048193;28;20120;-78
2024/01/07 07:52:44;;;;;;;8.27;1.60;;;;;;;12.37;100.00;98328.31;5065999;28;20047;-78
2024/01/07 07:55:11;;;;;;;6.78;1.42;;;;;;;12.31;100.00;98327.53;5066874;28;20103;-78
2024/01/07 07:57:40;;;;;;;7.30;1.55;;;;;;;12.44;100.00;98343.00;5067390;28;20056;-78
2024/01/07 08:00:07;;;;;;;7.40;1.55;;;;;;;12.36;100.00;98356.94;5069900;28;20068;-78
2024/01/07 08:02:33;;;;;;;8.43;3.42;;;;;;;12.19;100.00;98313.69;5069655;28;20169;-78
2024/01/07 08:04:58;;;;;;;16.05;4.78;;;;;;;12.45;100.00;98333.09;5049229;28;20086;-79
2024/01/07 08:07:23;;;;;;;12.07;4.00;;;;;;;12.28;100.00;98304.03;5069246;28;20456;-78
2024/01/07 08:09:49;;;;;;;19.38;6.63;;;;;;;12.36;100.00;98319.50;5051484;28;20027;-79
2024/01/07 08:12:14;;;;;;;16.85;5.57;;;;;;;12.56;100.00;98323.94;5069482;28;20135;-77
2024/01/07 08:14:41;;;;;;;10.88;4.82;;;;;;;12.72;100.00;98332.72;5051458;28;20164;-77
2024/01/07 08:17:09;;;;;;;9.88;3.03;;;;;;;12.47;100.00;98325.63;5069695;28;20036;-78
2024/01/07 08:19:36;;;;;;;17.98;5.82;;;;;;;12.76;100.00;98331.09;5069871;28;20031;-78
2024/01/07 08:22:01;;;;;;;55.78;17.40;;;;;;;12.94;100.00;98331.53;5069759;28;20032;-77
2024/01/07 08:24:27;;;;;;;31.70;10.43;;;;;;;12.69;100.00;98311.88;5069342;28;20060;-77
2024/01/07 08:26:53;;;;;;;18.40;5.18;;;;;;;13.03;100.00;98356.63;5068907;28;20445;-78
2024/01/07 08:29:18;;;;;;;29.13;13.02;;;;;;;12.94;100.00;98355.63;5068994;28;20489;-77
2024/01/07 08:31:43;;;;;;;16.40;5.28;;;;;;;13.63;100.00;98346.59;5069147;28;20497;-78
2024/01/07 08:34:09;;;;;;;17.02;7.93;;;;;;;14.57;100.00;98334.66;5069194;28;20029;-77
2024/01/07 08:36:34;;;;;;;15.23;5.85;;;;;;;14.57;100.00;98355.34;5069100;28;20024;-77
2024/01/07 08:39:02;;;;;;;17.98;6.80;;;;;;;15.16;100.00;98340.59;5069301;28;20103;-77
2024/01/07 08:41:28;;;;;;;;;;;;;;;15.26;100.00;98358.41;5069503;28;20504;-78
2024/01/07 08:43:53;;;;;;;18.02;7.32;;;;;;;15.11;100.00;98340.66;5069306;28;20443;-78
2024/01/07 08:46:21;;;;;;;15.15;4.75;;;;;;;14.77;100.00;98314.00;5068591;28;20080;-77
2024/01/07 08:48:47;;;;;;;9.95;2.50;;;;;;;14.71;100.00;98340.13;5068559;28;20425;-79
2024/01/07 08:51:13;;;;;;;11.52;4.13;;;;;;;14.30;100.00;98334.41;5069542;28;20044;-78
2024/01/07 08:53:39;;;;;;;8.85;2.60;;;;;;;14.24;100.00;98349.75;5068849;28;20664;-76
2024/01/07 08:56:06;;;;;;;9.98;2.10;;;;;;;14.31;100.00;98341.38;5069069;28;20033;-77
2024/01/07 08:58:31;;;;;;;6.53;1.88;;;;;;;13.98;100.00;98325.91;5068315;28;20043;-78
2024/01/07 09:00:57;;;;;;;12.63;2.83;;;;;;;13.82;100.00;98332.50;5068852;28;20021;-76
2024/01/07 09:03:22;;;;;;;9.15;2.58;;;;;;;13.95;100.00;98331.03;5050614;28;20429;-78
2024/01/07 09:05:48;;;;;;;13.65;4.35;;;;;;;13.55;100.00;98315.06;5067316;28;20645;-79
2024/01/07 09:08:14;;;;;;;12.75;3.28;;;;;;;13.84;100.00;98319.63;5066930;28;20032;-77
2024/01/07 09:10:40;;;;;;;14.02;4.20;;;;;;;14.12;100.00;98314.50;5067457;28;20025;-77
2024/01/07 09:13:05;;;;;;;5.80;2.10;;;;;;;14.63;100.00;98319.31;5067036;28;20048;-78
2024/01/07 09:15:31;;;;;;;6.90;2.08;;;;;;;13.81;100.00;98298.75;5067020;28;20025;-78
2024/01/07 09:17:56;;;;;;;10.77;2.20;;;;;;;14.13;100.00;98314.22;5066846;28;20036;-78
2024/01/07 09:20:22;;;;;;;12.40;3.15;;;;;;;13.95;100.00;98286.25;5067431;28;20024;-78
2024/01/07 09:22:48;;;;;;;24.90;9.45;;;;;;;14.13;100.00;98283.94;5068660;28;20033;-77
2024/01/07 09:25:15;;;;;;;13.40;4.63;;;;;;;14.11;100.00;98296.84;5050309;28;20047;-77
2024/01/07 09:27:40;;;;;;;10.77;3.40;;;;;;;14.23;100.00;98286.50;5050155;28;20287;-77
2024/01/07 09:30:06;;;;;;;15.15;4.65;;;;;;;14.39;100.00;98282.56;5068027;28;20024;-77
2024/01/07 09:32:32;;;;;;;15.75;4.65;;;;;;;14.38;100.00;98256.81;5067869;28;20469;-77
2024/01/07 09:34:57;;;;;;;15.55;6.13;;;;;;;14.49;100.00;98297.72;5068184;28;20562;-77
2024/01/07 09:37:23;;;;;;;39.30;14.45;;;;;;;15.00;100.00;98298.94;5068037;28;20119;-77
2024/01/07 09:39:49;;;;;;;18.20;7.57;;;;;;;15.48;100.00;98298.72;5068114;28;20155;-76
2024/01/07 09:42:16;;;;;;;11.02;5.00;;;;;;;14.84;100.00;98293.78;5068109;28;20083;-76
2024/01/07 09:44:42;;;;;;;40.93;22.67;;;;;;;14.66;100.00;98275.81;5067971;28;20033;-76
2024/01/07 09:47:13;;;;;;;33.72;19.88;;;;;;;14.56;100.00;98265.22;5067790;28;20033;-77
2024/01/07 09:49:39;;;;;;;11.70;4.43;;;;;;;14.31;100.00;98261.75;5067750;28;20661;-76
2024/01/07 09:52:05;;;;;;;13.77;3.97;;;;;;;14.13;100.00;98239.16;5067918;28;20085;-77
2024/01/07 09:54:32;;;;;;;15.02;3.83;;;;;;;13.90;100.00;98253.38;5067897;28;20037;-76
2024/01/07 09:57:02;;;;;;;10.88;3.63;;;;;;;14.19;100.00;98272.09;5067688;28;20032;-77
2024/01/07 09:59:29;;;;;;;12.63;2.83;;;;;;;13.92;100.00;98257.38;5068089;28;20067;-76
2024/01/07 10:01:55;;;;;;;12.80;3.42;;;;;;;14.03;100.00;98250.81;5067956;28;20028;-78
2024/01/07 10:04:21;;;;;;;8.85;2.17;;;;;;;13.74;100.00;98231.31;5067341;28;20032;-76
2024/01/07 10:06:48;;;;;;;9.40;2.47;;;;;;;14.10;100.00;98241.63;5067622;28;20200;-77
2024/01/07 10:09:14;;;;;;;12.10;4.50;;;;;;;14.46;100.00;98225.88;5067199;28;20485;-77
2024/01/07 10:11:40;;;;;;;15.05;5.35;;;;;;;14.23;100.00;98230.22;5067863;28;20093;-76
2024/01/07 10:14:06;;;;;;;17.15;5.18;;;;;;;14.28;100.00;98232.81;5067621;28;20036;-75
2024/01/07 10:16:32;;;;;;;8.95;3.22;;;;;;;14.38;100.00;98221.16;5066938;28;20044;-76
2024/01/07 10:18:58;;;;;;;7.70;2.92;;;;;;;15.38;100.00;98229.06;5066868;28;20037;-77
2024/01/07 10:21:24;;;;;;;12.90;3.63;;;;;;;14.64;100.00;98214.38;5067339;28;20036;-77
2024/01/07 10:23:49;;;;;;;10.43;4.28;;;;;;;15.61;100.00;98212.00;5067248;28;20526;-77
2024/01/07 10:26:15;;;;;;;12.48;5.30;;;;;;;15.13;98.63;98187.34;5067336;28;20477;-77
2024/01/07 10:28:40;;;;;;;16.23;7.53;;;;;;;14.96;100.00;98194.03;5067045;28;20028;-77
2024/01/07 10:31:06;;;;;;;15.38;4.05;;;;;;;15.23;100.00;98198.69;5067103;28;20025;-77
2024/01/07 10:33:34;;;;;;;13.75;5.70;;;;;;;15.63;99.10;98196.38;5067071;28;20032;-76
2024/01/07 10:36:05;;;;;;;9.95;4.43;;;;;;;14.82;100.00;98203.94;5067182;28;20024;-77
2024/01/07 10:38:33;;;;;;;14.05;6.40;;;;;;;14.82;100.00;98199.34;5066998;28;20043;-76
2024/01/07 10:41:00;;;;;;;13.65;4.85;;;;;;;15.63;100.00;98203.63;5067168;28;20105;-77
2024/01/07 10:43:29;;;;;;;12.38;4.95;;;;;;;15.31;100.00;98183.78;5049224;28;20036;-77
2024/01/07 10:45:55;;;;;;;17.10;10.98;;;;;;;15.26;100.00;98192.75;5066880;28;20439;-78
2024/01/07 10:48:21;;;;;;;38.75;26.17;;;;;;;15.06;100.00;98158.19;5067102;28;20060;-77
2024/01/07 10:50:50;;;;;;;19.67;11.07;;;;;;;14.99;98.03;98165.81;5066981;28;20052;-77
2024/01/07 10:53:20;;;;;;;35.50;18.75;;;;;;;14.78;100.00;98125.91;5067027;28;20033;-77
2024/01/07 10:56:07;;;;;;;20.40;8.57;;;;;;;15.16;100.00;98171.44;5067061;28;20025;-77
2024/01/07 10:58:34;;;;;;;14.93;5.35;;;;;;;14.98;95.39;98153.50;5066856;28;20466;-77
2024/01/07 11:01:02;;;;;;;35.88;24.25;;;;;;;14.96;95.96;98147.63;5066694;28;20519;-77
2024/01/07 11:03:38;;;;;;;15.75;7.03;;;;;;;15.01;99.63;98152.91;5067249;28;20043;-77
2024/01/07 11:06:11;;;;;;;21.05;8.75;;;;;;;14.85;100.00;98147.81;5048999;28;20492;-76
2024/01/07 11:08:54;;;;;;;10.98;5.55;;;;;;;14.57;99.22;98132.69;5066866;28;20506;-76
2024/01/07 11:11:27;;;;;;;20.83;9.48;;;;;;;14.52;100.00;98135.41;5066899;28;20565;-76
2024/01/07 11:13:52;;;;;;;18.77;9.45;;;;;;;14.65;99.21;98129.34;5067027;28;20072;-76